Time;durP1;ratioP1;P1;durP2;ratioP2;P2;SDS_P1;SDS_P2;PMS_P1;PMS_P2;Temp;Humidity;BMP_temperature;BMP_pressure;BME280_temperature;BME280_humidity;BME280_pressure;Samples;Min_cycle;Max_cycle;Signal;HPM_P1;HPM_P2
2022/11/10 00:01:54;;;;;;;9.15;2.80;;;;;;;11.96;70.08;101631.38;5069667;28;20116;-72
2022/11/10 00:04:20;;;;;;;11.30;3.05;;;;;;;12.00;70.01;101640.91;5048082;28;20033;-72
2022/11/10 00:06:48;;;;;;;9.05;3.00;;;;;;;11.94;69.94;101638.25;5050246;28;20025;-72
2022/11/10 00:09:14;;;;;;;10.88;3.08;;;;;;;11.93;70.32;101642.97;5050548;28;20388;-72
2022/11/10 00:11:40;;;;;;;14.27;2.78;;;;;;;11.93;69.76;101637.41;5067019;28;20463;-72
2022/11/10 00:17:00;;;;;;;11.48;3.08;;;;;;;11.93;70.52;101642.13;5031310;28;20401;-72
2022/11/10 00:19:26;;;;;;;13.00;2.97;;;;;;;11.88;70.57;101647.59;5030595;28;20025;-72
2022/11/10 00:21:52;;;;;;;14.45;2.50;;;;;;;11.97;70.17;101638.63;5034065;28;20051;-72
2022/11/10 00:24:17;;;;;;;13.57;3.00;;;;;;;11.99;70.21;101639.22;5042464;28;20520;-72
2022/11/10 00:26:43;;;;;;;10.80;3.15;;;;;;;12.01;70.01;101634.25;5033332;28;20025;-72
2022/11/10 00:29:08;;;;;;;12.43;3.17;;;;;;;11.96;69.96;101636.09;5055877;28;20102;-72
2022/11/10 00:31:39;;;;;;;12.50;2.75;;;;;;;11.92;70.30;101649.63;5050280;28;20202;-72
2022/11/10 00:34:08;;;;;;;13.40;3.10;;;;;;;11.90;70.28;101646.22;5048607;28;20036;-72
2022/11/10 00:36:33;;;;;;;11.95;2.90;;;;;;;11.86;70.60;101655.31;5068299;28;20082;-72
2022/11/10 00:38:59;;;;;;;13.65;3.30;;;;;;;11.90;70.46;101657.34;5070806;28;20384;-72
2022/11/10 00:41:24;;;;;;;8.70;2.80;;;;;;;11.88;70.49;101670.69;5054228;28;20033;-72
2022/11/10 00:43:49;;;;;;;11.00;3.08;;;;;;;11.89;70.30;101664.03;5051132;28;20745;-73
2022/11/10 00:46:15;;;;;;;8.93;2.53;;;;;;;11.87;70.55;101665.34;5064008;28;20033;-72
2022/11/10 00:48:43;;;;;;;11.35;2.92;;;;;;;11.85;70.46;101676.72;5058451;28;20109;-72
2022/11/10 00:51:25;;;;;;;10.38;2.45;;;;;;;11.90;70.44;101668.50;5030674;28;20045;-71
2022/11/10 00:53:50;;;;;;;7.30;3.30;;;;;;;11.81;70.28;101672.69;5030650;28;20029;-72
2022/11/10 00:56:16;;;;;;;11.88;3.25;;;;;;;11.80;70.24;101679.34;5031373;28;20030;-72
2022/11/10 00:58:42;;;;;;;12.25;2.88;;;;;;;11.79;70.74;101672.09;5048383;28;20040;-71
2022/11/10 01:01:08;;;;;;;13.77;2.90;;;;;;;11.80;70.60;101659.88;5049841;28;20100;-71
2022/11/10 01:03:33;;;;;;;15.68;3.50;;;;;;;11.67;70.99;101669.31;5033290;28;20034;-71
2022/11/10 01:06:04;;;;;;;11.77;3.47;;;;;;;11.71;71.08;101678.00;5031197;28;20575;-71
2022/11/10 01:08:30;;;;;;;13.50;4.07;;;;;;;11.65;70.91;101673.41;5030269;28;20041;-71
2022/11/10 01:11:06;;;;;;;11.27;3.13;;;;;;;11.71;71.07;101680.78;5046630;28;20037;-71
2022/11/10 01:13:32;;;;;;;13.77;3.40;;;;;;;11.65;71.23;101676.19;5069172;28;20657;-72
2022/11/10 01:16:06;;;;;;;16.10;3.03;;;;;;;11.66;71.01;101678.72;5069676;28;20058;-71
2022/11/10 01:18:33;;;;;;;17.98;3.38;;;;;;;11.60;71.11;101678.88;5030340;28;20555;-71
2022/11/10 01:20:58;;;;;;;8.93;2.95;;;;;;;11.66;70.86;101684.28;5030616;28;20028;-71
2022/11/10 01:23:23;;;;;;;12.32;2.92;;;;;;;11.67;70.83;101685.13;5030389;28;20030;-72
2022/11/10 01:25:49;;;;;;;11.07;2.60;;;;;;;11.69;71.14;101689.38;5030124;28;20029;-72
2022/11/10 01:28:14;;;;;;;8.63;3.13;;;;;;;11.67;70.90;101701.81;5067127;28;20086;-72
2022/11/10 01:30:39;;;;;;;17.83;3.45;;;;;;;11.67;71.16;101712.94;5069337;28;20480;-71
2022/11/10 01:33:05;;;;;;;14.52;3.00;;;;;;;11.69;71.09;101717.19;5070285;28;20527;-71
2022/11/10 01:35:30;;;;;;;15.13;3.25;;;;;;;11.67;70.92;101710.16;5070728;28;20029;-72
2022/11/10 01:37:56;;;;;;;15.40;3.63;;;;;;;11.69;71.21;101717.19;5069224;28;20051;-71
2022/11/10 01:40:21;;;;;;;10.93;2.70;;;;;;;11.66;70.93;101716.81;5047156;28;20029;-71
2022/11/10 01:42:55;;;;;;;16.58;3.63;;;;;;;11.66;71.20;101719.59;5064398;28;20037;-72
2022/11/10 01:45:21;;;;;;;9.45;3.08;;;;;;;11.67;70.82;101711.03;5068904;28;20098;-71
2022/11/10 01:47:46;;;;;;;15.93;3.58;;;;;;;11.69;70.75;101710.78;5073409;28;20068;-71
2022/11/10 01:50:12;;;;;;;9.70;3.40;;;;;;;11.64;70.85;101724.56;5073891;28;20036;-71
2022/11/10 01:52:37;;;;;;;10.75;3.00;;;;;;;11.61;71.23;101717.53;5070990;28;20468;-71
2022/11/10 01:55:03;;;;;;;13.43;3.10;;;;;;;11.63;71.19;101709.81;5054021;28;20025;-72
2022/11/10 01:57:28;;;;;;;12.55;3.25;;;;;;;11.52;71.30;101716.19;5042576;28;20040;-72
2022/11/10 01:59:54;;;;;;;14.35;2.90;;;;;;;11.54;71.65;101706.50;5032844;28;20026;-72
2022/11/10 02:02:31;;;;;;;12.55;2.97;;;;;;;11.57;71.22;101710.75;5033573;28;20068;-72
2022/11/10 02:04:58;;;;;;;11.85;3.40;;;;;;;11.57;71.56;101709.91;5032933;28;20036;-71
2022/11/10 02:07:24;;;;;;;11.02;2.92;;;;;;;11.58;71.37;101706.88;5033200;28;20060;-72
2022/11/10 02:09:52;;;;;;;12.27;3.20;;;;;;;11.57;70.96;101716.31;5033469;28;20033;-72
2022/11/10 02:12:35;;;;;;;13.18;3.40;;;;;;;11.53;71.08;101718.72;5067701;28;20025;-71
2022/11/10 02:15:11;;;;;;;8.70;2.55;;;;;;;11.51;71.48;101723.69;5039592;28;20044;-71
2022/11/10 02:17:37;;;;;;;16.67;3.58;;;;;;;11.55;71.55;101711.00;5046099;28;20029;-72
2022/11/10 02:20:06;;;;;;;17.38;3.25;;;;;;;11.51;71.39;101720.03;5052749;28;20028;-72
2022/11/10 02:22:31;;;;;;;12.75;2.90;;;;;;;11.52;71.15;101722.59;5052820;28;20021;-72
2022/11/10 02:24:57;;;;;;;15.38;3.22;;;;;;;11.52;71.14;101722.59;5051290;28;20639;-71
2022/11/10 02:27:22;;;;;;;16.85;3.05;;;;;;;11.54;70.98;101734.31;5068436;28;20030;-71
2022/11/10 02:29:47;;;;;;;13.25;3.22;;;;;;;11.51;71.08;101740.38;5073173;28;20032;-71
2022/11/10 02:32:13;;;;;;;13.75;3.00;;;;;;;11.48;71.35;101735.28;5059920;28;20039;-71
2022/11/10 02:34:38;;;;;;;12.45;2.70;;;;;;;11.47;71.49;101741.06;5072068;28;20480;-72
2022/11/10 02:37:03;;;;;;;11.90;3.13;;;;;;;11.52;71.30;101746.78;5073007;28;20071;-72
2022/11/10 02:39:29;;;;;;;14.30;2.97;;;;;;;11.48;71.59;101759.47;5072205;28;20023;-72
2022/11/10 02:41:54;;;;;;;10.27;2.70;;;;;;;11.46;71.36;101765.25;5072261;28;20039;-71
2022/11/10 02:44:19;;;;;;;16.73;3.05;;;;;;;11.49;71.83;101772.28;5072769;28;20016;-72
2022/11/10 02:46:45;;;;;;;13.50;3.17;;;;;;;11.49;71.38;101778.69;5070821;28;20533;-72
2022/11/10 02:49:10;;;;;;;17.88;2.97;;;;;;;11.47;71.41;101775.28;5036643;28;20462;-72
2022/11/10 02:51:35;;;;;;;11.07;2.75;;;;;;;11.47;71.30;101775.28;5032585;28;20030;-72
2022/11/10 02:54:00;;;;;;;11.75;2.72;;;;;;;11.46;71.17;101770.81;5043008;28;20063;-72
2022/11/10 02:56:26;;;;;;;17.00;3.70;;;;;;;11.49;70.83;101773.13;5036786;28;20477;-72
2022/11/10 02:58:51;;;;;;;15.07;3.38;;;;;;;11.43;71.55;101767.66;5046603;28;20048;-72
2022/11/10 03:01:16;;;;;;;8.30;2.70;;;;;;;11.44;71.60;101767.44;5049026;28;20115;-71
2022/11/10 03:03:42;;;;;;;14.95;2.80;;;;;;;11.43;71.31;101760.16;5040732;28;20037;-71
2022/11/10 03:06:07;;;;;;;12.25;2.60;;;;;;;11.42;71.32;101769.59;5048841;28;20059;-71
2022/11/10 03:08:32;;;;;;;10.82;2.38;;;;;;;11.43;71.45;101771.28;5053082;28;20050;-72
2022/11/10 03:10:57;;;;;;;10.07;2.72;;;;;;;11.42;71.63;101775.13;5040976;28;20104;-71
2022/11/10 03:13:24;;;;;;;14.30;3.05;;;;;;;11.38;71.35;101792.53;5031197;28;20034;-72
2022/11/10 03:15:49;;;;;;;13.65;3.10;;;;;;;11.37;71.55;101790.84;5042168;28;20033;-72
2022/11/10 03:18:33;;;;;;;13.38;2.90;;;;;;;11.35;71.52;101793.84;5032954;28;20033;-71
2022/11/10 03:20:58;;;;;;;16.05;3.30;;;;;;;11.34;71.45;101783.81;5035178;28;20033;-72
2022/11/10 03:23:23;;;;;;;13.77;3.08;;;;;;;11.29;71.78;101783.69;5036446;28;20044;-71
2022/11/10 03:25:49;;;;;;;13.82;3.88;;;;;;;11.34;71.70;101794.94;5044622;28;20109;-72
2022/11/10 03:28:15;;;;;;;15.65;3.10;;;;;;;11.23;71.64;101793.78;5033524;28;20029;-70
2022/11/10 03:30:41;;;;;;;10.57;2.78;;;;;;;11.28;71.49;101796.75;5038804;28;20071;-71
2022/11/10 03:33:07;;;;;;;12.32;3.13;;;;;;;11.22;71.80;101806.00;5041341;28;20037;-71
2022/11/10 03:35:33;;;;;;;13.57;3.50;;;;;;;11.30;71.76;101813.16;5035582;28;20085;-71
2022/11/10 03:37:58;;;;;;;15.07;3.28;;;;;;;11.28;71.59;101824.53;5054554;28;20044;-71
2022/11/10 03:40:24;;;;;;;14.38;3.22;;;;;;;11.27;71.39;101819.19;5042913;28;20484;-71
2022/11/10 03:42:49;;;;;;;13.63;2.92;;;;;;;11.22;71.54;101822.66;5046646;28;20044;-71
2022/11/10 03:45:15;;;;;;;11.15;3.17;;;;;;;11.16;71.70;101823.63;5046254;28;20032;-71
2022/11/10 03:47:44;;;;;;;17.13;3.50;;;;;;;11.17;71.69;101828.09;5034271;28;20036;-72
2022/11/10 03:50:09;;;;;;;13.20;2.90;;;;;;;11.20;71.72;101835.09;5035200;28;20040;-72
2022/11/10 03:52:38;;;;;;;10.30;2.47;;;;;;;11.16;71.72;101834.75;5050129;28;20039;-71
2022/11/10 03:55:04;;;;;;;13.88;2.90;;;;;;;11.11;71.76;101842.06;5059127;28;20036;-71
2022/11/10 03:57:29;;;;;;;16.05;3.22;;;;;;;11.12;71.90;101849.31;5046083;28;20037;-72
2022/11/10 03:59:54;;;;;;;12.77;3.22;;;;;;;11.11;71.53;101848.47;5040405;28;20033;-71
2022/11/10 04:02:19;;;;;;;12.00;3.53;;;;;;;11.12;71.94;101846.53;5046629;28;20450;-71
2022/11/10 04:10:12;;;;;;;11.80;3.35;;;;;;;11.13;71.57;101857.44;5030796;28;20051;-71
2022/11/10 04:18:23;;;;;;;13.98;2.75;;;;;;;11.14;71.86;101869.38;5044313;28;20044;-70
2022/11/10 04:20:48;;;;;;;;;;;;;;;11.28;71.34;101865.38;5038293;28;20032;-71
2022/11/10 04:23:27;;;;;;;12.10;2.75;;;;;;;11.11;71.59;101875.41;5051898;28;19921;-71
2022/11/10 04:28:37;;;;;;;16.17;3.85;;;;;;;11.05;71.90;101880.81;5033787;28;20044;-71
2022/11/10 04:31:02;;;;;;;13.40;3.45;;;;;;;11.02;72.18;101886.81;5033439;28;20041;-71
2022/11/10 04:33:27;;;;;;;11.30;3.13;;;;;;;11.02;71.93;101886.81;5067731;28;20024;-71
2022/11/10 04:35:53;;;;;;;15.68;3.30;;;;;;;11.02;72.00;101886.81;5060525;28;20464;-71
2022/11/10 04:38:18;;;;;;;13.38;3.40;;;;;;;11.01;72.17;101892.63;5051302;28;20029;-71
2022/11/10 04:40:43;;;;;;;15.27;3.38;;;;;;;10.99;71.79;101897.53;5050084;28;20108;-71
2022/11/10 04:43:08;;;;;;;11.40;3.22;;;;;;;11.02;72.09;101900.72;5050873;28;20094;-71
2022/11/10 04:45:34;;;;;;;17.20;2.80;;;;;;;10.99;72.68;101909.50;5050639;28;20029;-72
2022/11/10 04:47:59;;;;;;;15.45;3.22;;;;;;;11.00;72.31;101915.91;5040365;28;20032;-73
2022/11/10 04:50:24;;;;;;;15.25;3.63;;;;;;;11.01;72.70;101915.69;5070516;28;20051;-72
2022/11/10 04:52:49;;;;;;;11.25;3.63;;;;;;;11.01;72.41;101928.75;5071416;28;20036;-72
2022/11/10 04:55:18;;;;;;;13.88;3.42;;;;;;;10.97;72.41;101924.72;5069822;28;20023;-71
2022/11/10 04:57:43;;;;;;;13.00;3.05;;;;;;;10.99;72.38;101926.16;5043499;28;20037;-71
2022/11/10 05:00:11;;;;;;;14.52;3.42;;;;;;;11.02;72.50;101931.28;5030809;28;20539;-70
2022/11/10 05:02:37;;;;;;;15.02;3.58;;;;;;;11.00;72.52;101936.22;5054461;28;20052;-71
2022/11/10 05:05:02;;;;;;;14.82;3.60;;;;;;;10.99;72.27;101936.44;5036666;28;20056;-71
2022/11/10 05:07:28;;;;;;;10.73;3.55;;;;;;;10.99;72.52;101936.44;5030164;28;20531;-71
2022/11/10 05:09:53;;;;;;;16.95;3.60;;;;;;;10.96;72.42;101934.09;5030949;28;20116;-71
2022/11/10 05:12:19;;;;;;;9.25;2.75;;;;;;;10.97;72.37;101939.47;5031090;28;20025;-71
2022/11/10 05:14:44;;;;;;;17.33;3.33;;;;;;;11.00;72.29;101949.25;5030007;28;20078;-71
2022/11/10 05:17:09;;;;;;;13.10;3.22;;;;;;;10.96;72.37;101948.00;5042933;28;20140;-72
2022/11/10 05:19:34;;;;;;;10.50;3.28;;;;;;;10.92;72.51;101953.16;5050153;28;20040;-71
2022/11/10 05:22:00;;;;;;;14.25;3.45;;;;;;;10.87;72.71;101955.78;5052865;28;20396;-71
2022/11/10 05:24:25;;;;;;;21.45;3.90;;;;;;;10.85;72.82;101957.97;5054294;28;20033;-71
2022/11/10 05:26:50;;;;;;;16.50;3.70;;;;;;;10.90;72.73;101966.44;5054117;28;20025;-71
2022/11/10 05:29:15;;;;;;;12.82;3.17;;;;;;;10.88;72.75;101954.69;5054013;28;20025;-72
2022/11/10 05:31:41;;;;;;;14.63;3.22;;;;;;;10.86;72.72;101959.66;5062375;28;20421;-71
2022/11/10 05:34:06;;;;;;;12.32;3.17;;;;;;;10.85;72.63;101954.34;5074578;28;20043;-71
2022/11/10 05:36:31;;;;;;;11.88;3.42;;;;;;;10.80;72.85;101952.22;5071647;28;20044;-71
2022/11/10 05:38:56;;;;;;;14.15;3.50;;;;;;;10.79;72.59;101943.03;5041291;28;20029;-71
2022/11/10 05:41:22;;;;;;;10.32;2.97;;;;;;;10.82;72.77;101944.53;5045093;28;20016;-71
2022/11/10 05:43:47;;;;;;;14.52;3.88;;;;;;;10.79;72.90;101939.41;5052931;28;20045;-71
2022/11/10 05:46:13;;;;;;;14.35;3.47;;;;;;;10.81;72.56;101943.66;5054148;28;20029;-71
2022/11/10 05:48:38;;;;;;;21.27;3.20;;;;;;;10.78;72.71;101962.72;5054005;28;20409;-72
2022/11/10 05:51:04;;;;;;;13.60;3.25;;;;;;;10.78;72.71;101959.94;5062491;28;20036;-72
2022/11/10 05:53:29;;;;;;;9.75;2.97;;;;;;;10.77;72.37;101975.75;5073217;28;20036;-72
2022/11/10 05:55:54;;;;;;;16.50;3.70;;;;;;;10.77;72.80;101974.91;5041701;28;20025;-73
2022/11/10 05:58:19;;;;;;;12.10;2.65;;;;;;;10.74;72.96;101987.31;5033185;28;20393;-72
2022/11/10 06:00:45;;;;;;;13.73;3.65;;;;;;;10.69;72.76;101978.81;5041148;28;20028;-72
2022/11/10 06:03:15;;;;;;;14.25;3.13;;;;;;;10.71;73.08;101982.19;5070953;28;20029;-71
2022/11/10 06:05:41;;;;;;;12.50;3.47;;;;;;;10.71;72.78;101987.75;5072983;28;20025;-71
2022/11/10 06:08:06;;;;;;;15.50;3.35;;;;;;;10.72;72.93;101988.59;5073623;28;20102;-71
2022/11/10 06:10:33;;;;;;;12.10;3.13;;;;;;;10.70;72.79;101999.94;5073842;28;20037;-71
2022/11/10 06:12:58;;;;;;;12.82;3.30;;;;;;;10.69;73.00;101995.47;5055622;28;20021;-72
2022/11/10 06:15:25;;;;;;;11.93;3.45;;;;;;;10.66;73.07;101995.94;5051985;28;20445;-72
2022/11/10 06:17:51;;;;;;;11.82;3.33;;;;;;;10.68;73.14;102012.34;5032503;28;20038;-71
2022/11/10 06:20:17;;;;;;;14.13;3.35;;;;;;;10.71;72.90;102009.13;5033128;28;20018;-71
2022/11/10 06:22:43;;;;;;;14.45;3.65;;;;;;;10.65;72.94;102010.00;5033209;28;20060;-72
2022/11/10 06:25:10;;;;;;;17.63;3.67;;;;;;;10.67;73.07;102016.22;5044395;28;20037;-71
2022/11/10 06:27:35;;;;;;;13.32;3.40;;;;;;;10.61;73.74;102008.75;5073309;28;20028;-71
2022/11/10 06:30:01;;;;;;;16.27;3.30;;;;;;;10.59;73.20;102006.22;5052043;28;20426;-71
2022/11/10 06:32:26;;;;;;;13.77;3.65;;;;;;;10.54;73.29;102015.22;5059703;28;20468;-71
2022/11/10 06:34:51;;;;;;;11.43;3.38;;;;;;;10.53;73.62;102018.22;5069426;28;20487;-71
2022/11/10 06:37:17;;;;;;;12.23;3.38;;;;;;;10.53;73.57;102026.53;5072882;28;20393;-72
2022/11/10 06:39:42;;;;;;;12.15;3.13;;;;;;;10.47;73.85;102036.63;5066105;28;20461;-72
2022/11/10 06:42:07;;;;;;;13.50;3.63;;;;;;;10.54;73.74;102033.81;5068780;28;20028;-72
2022/11/10 06:44:33;;;;;;;14.40;3.47;;;;;;;10.56;73.59;102045.53;5045748;28;20082;-75
2022/11/10 06:46:58;;;;;;;13.82;3.58;;;;;;;10.55;73.61;102043.84;5046297;28;20135;-79
2022/11/10 06:49:23;;;;;;;14.75;3.70;;;;;;;10.48;73.52;102054.97;5048733;28;20083;-73
2022/11/10 06:51:48;;;;;;;11.90;2.97;;;;;;;10.52;73.70;102056.22;5038175;28;20052;-72
2022/11/10 06:54:14;;;;;;;17.02;3.35;;;;;;;10.51;73.71;102065.66;5030715;28;20477;-74
2022/11/10 06:56:42;;;;;;;12.00;3.25;;;;;;;10.52;73.86;102067.34;5033826;28;20515;-70
2022/11/10 06:59:07;;;;;;;16.75;3.35;;;;;;;10.52;73.94;102067.34;5044235;28;20403;-71
2022/11/10 07:01:33;;;;;;;11.90;3.30;;;;;;;10.53;73.50;102071.84;5034421;28;20033;-73
2022/11/10 07:04:04;;;;;;;15.55;3.40;;;;;;;10.48;73.67;102068.84;5035869;28;20029;-72
2022/11/10 07:06:29;;;;;;;13.35;3.17;;;;;;;10.48;73.83;102071.63;5047478;28;20037;-71
2022/11/10 07:08:55;;;;;;;10.75;3.28;;;;;;;10.51;73.61;102073.97;5032265;28;20488;-72
2022/11/10 07:11:20;;;;;;;17.55;3.58;;;;;;;10.52;73.74;102072.88;5038116;28;20091;-69
2022/11/10 07:13:45;;;;;;;14.38;3.47;;;;;;;10.56;73.54;102087.19;5041645;28;20017;-69
2022/11/10 07:16:11;;;;;;;12.15;3.63;;;;;;;10.54;73.77;102090.19;5044278;28;20386;-76
2022/11/10 07:18:36;;;;;;;15.85;3.05;;;;;;;10.51;73.94;102090.63;5035620;28;20031;-71
2022/11/10 07:21:03;;;;;;;15.18;3.80;;;;;;;10.54;73.80;102103.22;5048457;28;20029;-73
2022/11/10 07:23:32;;;;;;;12.32;3.65;;;;;;;10.49;73.92;102101.13;5051137;28;20477;-72
2022/11/10 07:25:58;;;;;;;13.82;3.60;;;;;;;10.51;73.68;102104.50;5050293;28;20025;-75
2022/11/10 07:28:24;;;;;;;14.60;3.58;;;;;;;10.47;74.12;102114.34;5033946;28;20133;-73
2022/11/10 07:30:49;;;;;;;15.55;3.75;;;;;;;10.50;73.88;102113.06;5036897;28;20120;-71
2022/11/10 07:33:14;;;;;;;11.38;3.30;;;;;;;10.56;73.94;102135.22;5036526;28;20025;-71
2022/11/10 07:35:40;;;;;;;12.10;3.25;;;;;;;10.59;73.79;102136.72;5047461;28;20025;-76
2022/11/10 07:38:09;;;;;;;16.48;3.53;;;;;;;10.54;74.10;102136.53;5033473;28;20037;-76
2022/11/10 07:40:35;;;;;;;16.27;3.60;;;;;;;10.51;74.32;102132.28;5038973;28;20486;-79
2022/11/10 07:43:03;;;;;;;15.50;3.97;;;;;;;10.55;74.14;102135.47;5050832;28;20021;-75
2022/11/10 07:45:30;;;;;;;16.38;3.50;;;;;;;10.52;74.15;102130.34;5042893;28;20090;-77
2022/11/10 07:48:01;;;;;;;10.43;3.28;;;;;;;10.56;74.29;102139.94;5046448;28;20496;-76
2022/11/10 07:50:27;;;;;;;16.63;3.75;;;;;;;10.55;74.42;102127.13;5038860;28;20033;-75
2022/11/10 07:53:00;;;;;;;15.07;3.08;;;;;;;10.58;74.31;102135.03;5035181;28;20040;-72
2022/11/10 07:55:25;;;;;;;14.15;3.17;;;;;;;10.59;74.42;102139.50;5031224;28;20440;-74
2022/11/10 07:57:57;;;;;;;15.13;3.58;;;;;;;10.59;74.41;102136.72;5044058;28;20021;-73
2022/11/10 08:00:22;;;;;;;13.80;3.55;;;;;;;10.57;74.50;102145.28;5050701;28;20459;-72
2022/11/10 08:02:47;;;;;;;13.77;3.50;;;;;;;10.59;74.41;102145.03;5040727;28;20116;-74
2022/11/10 08:05:13;;;;;;;11.68;3.88;;;;;;;10.61;74.37;102150.38;5028973;28;20380;-78
2022/11/10 08:07:39;;;;;;;16.88;3.45;;;;;;;10.63;74.42;102156.56;5070223;28;20033;-77
2022/11/10 08:10:05;;;;;;;17.33;3.67;;;;;;;10.67;74.45;102160.59;5055106;28;20037;-77
2022/11/10 08:12:31;;;;;;;14.88;3.75;;;;;;;10.69;74.53;102166.75;5035159;28;20025;-76
2022/11/10 08:14:56;;;;;;;15.98;3.58;;;;;;;10.72;74.42;102183.84;5028269;28;20552;-75
2022/11/10 08:17:21;;;;;;;15.45;4.32;;;;;;;10.72;74.40;102183.00;5029999;28;20080;-75
2022/11/10 08:19:47;;;;;;;15.10;3.50;;;;;;;10.75;74.25;102188.97;5030827;28;20033;-75
2022/11/10 08:22:12;;;;;;;15.88;3.70;;;;;;;10.77;74.33;102186.81;5030172;28;20108;-75
2022/11/10 08:24:37;;;;;;;10.98;3.65;;;;;;;10.78;74.08;102187.66;5030104;28;20032;-74
2022/11/10 08:27:03;;;;;;;9.80;3.22;;;;;;;10.82;74.29;102187.00;5036812;28;20373;-74
2022/11/10 08:29:28;;;;;;;14.95;4.00;;;;;;;10.83;74.44;102182.28;5060444;28;20046;-74
2022/11/10 08:31:53;;;;;;;16.40;3.70;;;;;;;10.86;74.43;102190.19;5069479;28;20020;-74
2022/11/10 08:34:20;;;;;;;13.23;3.42;;;;;;;10.87;74.31;102197.44;5069598;28;20028;-74
2022/11/10 08:36:45;;;;;;;17.50;4.63;;;;;;;10.88;74.41;102196.34;5070512;28;20060;-75
2022/11/10 08:39:13;;;;;;;16.48;3.72;;;;;;;10.89;74.34;102192.53;5069624;28;20510;-74
2022/11/10 08:41:44;;;;;;;14.88;3.63;;;;;;;10.96;74.47;102192.47;5070456;28;20028;-74
2022/11/10 08:44:09;;;;;;;16.63;4.00;;;;;;;11.02;74.06;102198.00;5044000;28;20025;-73
2022/11/10 08:46:35;;;;;;;17.40;4.05;;;;;;;11.00;74.17;102196.50;5048614;28;20483;-75
2022/11/10 08:49:00;;;;;;;11.80;3.15;;;;;;;11.00;74.32;102202.94;5050535;28;20025;-75
2022/11/10 08:51:26;;;;;;;15.23;3.78;;;;;;;11.07;74.57;102203.72;5043154;28;20121;-75
2022/11/10 08:53:54;;;;;;;14.57;4.38;;;;;;;11.14;74.38;102208.41;5029456;28;20105;-75
2022/11/10 08:56:19;;;;;;;17.00;3.42;;;;;;;11.16;74.33;102207.09;5035751;28;20444;-75
2022/11/10 08:58:45;;;;;;;14.95;4.43;;;;;;;11.17;73.96;102214.34;5055030;28;20052;-75
2022/11/10 09:01:11;;;;;;;12.88;3.45;;;;;;;11.08;74.55;102212.91;5058370;28;20047;-75
2022/11/10 09:03:36;;;;;;;19.40;4.28;;;;;;;11.11;74.48;102218.03;5044522;28;20056;-69
2022/11/10 09:06:02;;;;;;;19.50;4.05;;;;;;;11.17;74.50;102224.63;5039866;28;20071;-69
2022/11/10 09:08:27;;;;;;;14.77;3.25;;;;;;;11.19;74.57;102228.03;5045453;28;20033;-69
2022/11/10 09:10:52;;;;;;;13.98;3.72;;;;;;;11.17;74.36;102221.84;5041244;28;20040;-69
2022/11/10 09:13:20;;;;;;;13.02;3.53;;;;;;;11.20;74.82;102235.28;5047453;28;20487;-69
2022/11/10 09:15:46;;;;;;;11.10;3.75;;;;;;;11.28;74.65;102232.25;5040651;28;20099;-69
2022/11/10 09:18:14;;;;;;;18.00;4.00;;;;;;;11.41;74.86;102243.28;5053029;28;20419;-69
2022/11/10 09:20:40;;;;;;;13.90;3.40;;;;;;;11.58;74.44;102237.16;5056528;28;20405;-69
2022/11/10 09:23:08;;;;;;;20.63;4.07;;;;;;;11.77;74.13;102242.53;5056228;28;20017;-68
2022/11/10 09:25:34;;;;;;;15.35;3.80;;;;;;;11.98;74.12;102246.88;5056333;28;20028;-67
2022/11/10 09:28:00;;;;;;;13.93;3.88;;;;;;;12.15;73.07;102251.88;5043276;28;20055;-67
2022/11/10 09:30:26;;;;;;;11.93;3.38;;;;;;;12.32;72.51;102244.63;5036702;28;20096;-68
2022/11/10 09:32:55;;;;;;;14.98;4.18;;;;;;;12.43;71.77;102234.66;5040118;28;20479;-68
2022/11/10 09:35:21;;;;;;;14.23;3.25;;;;;;;12.53;71.58;102241.38;5058494;28;20104;-67
2022/11/10 09:37:46;;;;;;;17.20;3.47;;;;;;;12.70;71.71;102235.19;5076464;28;20076;-68
2022/11/10 09:40:24;;;;;;;18.27;3.40;;;;;;;12.84;71.02;102230.28;5075250;28;20121;-68
2022/11/10 09:42:54;;;;;;;17.63;3.58;;;;;;;13.01;70.77;102243.34;5051696;28;20029;-68
2022/11/10 09:45:25;;;;;;;13.15;3.35;;;;;;;13.13;70.00;102235.03;5048370;28;20029;-68
2022/11/10 09:48:19;;;;;;;18.45;3.72;;;;;;;13.28;70.04;102245.75;5055854;28;20028;-68
2022/11/10 09:50:51;;;;;;;18.02;3.67;;;;;;;13.38;68.86;102247.97;5049369;28;20057;-76
2022/11/10 09:53:23;;;;;;;17.33;4.03;;;;;;;13.50;68.65;102244.13;5043711;28;20388;-74
2022/11/10 09:55:52;;;;;;;15.43;3.50;;;;;;;13.60;68.51;102251.94;5055946;28;20476;-74
2022/11/10 09:58:23;;;;;;;14.38;3.50;;;;;;;13.73;67.86;102239.69;5056734;28;20032;-74
2022/11/10 10:01:00;;;;;;;15.20;3.22;;;;;;;13.80;67.75;102240.44;5056457;28;20109;-74
2022/11/10 10:03:30;;;;;;;15.77;3.60;;;;;;;13.88;67.55;102244.81;5056660;28;20021;-74
2022/11/10 10:06:01;;;;;;;14.32;3.90;;;;;;;13.96;66.91;102242.50;5057539;28;20025;-75
2022/11/10 10:08:35;;;;;;;14.23;3.47;;;;;;;14.08;66.86;102245.31;5057278;28;20373;-74
2022/11/10 10:11:20;;;;;;;17.77;4.22;;;;;;;14.20;67.10;102245.31;5051643;28;20369;-75
2022/11/10 10:14:11;;;;;;;12.57;3.67;;;;;;;14.33;66.98;102249.78;5055933;28;20075;-75
2022/11/10 10:16:45;;;;;;;11.57;3.45;;;;;;;14.34;65.90;102269.06;5054577;28;20151;-74
2022/11/10 10:19:19;;;;;;;15.90;3.63;;;;;;;14.37;65.61;102264.97;5053423;28;20036;-74
2022/11/10 10:22:03;;;;;;;12.77;3.28;;;;;;;14.42;66.18;102265.06;5056650;28;20098;-74
2022/11/10 10:24:31;;;;;;;12.50;3.33;;;;;;;14.52;65.63;102272.88;5052296;28;20023;-74
2022/11/10 10:26:59;;;;;;;13.60;3.13;;;;;;;14.60;65.21;102272.50;5052153;28;20117;-74
2022/11/10 10:29:36;;;;;;;16.27;3.45;;;;;;;14.65;65.07;102284.63;5052976;28;20052;-74
2022/11/10 10:32:01;;;;;;;13.20;3.13;;;;;;;14.71;64.77;102272.47;5052068;28;20449;-74
2022/11/10 10:34:30;;;;;;;17.05;3.15;;;;;;;14.71;64.50;102285.59;5053070;28;20108;-74
2022/11/10 10:36:56;;;;;;;13.05;3.33;;;;;;;14.79;64.46;102287.16;5052116;28;20081;-73
2022/11/10 10:39:43;;;;;;;12.18;3.15;;;;;;;14.84;65.23;102295.66;5052332;28;20506;-74
2022/11/10 10:42:26;;;;;;;17.95;3.70;;;;;;;14.88;64.28;102289.31;5038417;28;20033;-74
2022/11/10 10:45:18;;;;;;;15.30;3.95;;;;;;;14.89;64.58;102301.34;5034821;28;20029;-73
2022/11/10 10:47:44;;;;;;;15.65;3.85;;;;;;;14.93;63.66;102322.13;5052837;28;20384;-75
2022/11/10 10:50:15;;;;;;;11.23;2.97;;;;;;;14.92;63.90;102317.63;5032527;28;20056;-74
2022/11/10 10:52:41;;;;;;;13.25;3.45;;;;;;;14.88;63.56;102325.66;5046234;28;20033;-71
2022/11/10 10:55:07;;;;;;;13.90;3.38;;;;;;;14.94;63.94;102312.66;5044671;28;20029;-74
2022/11/10 10:57:34;;;;;;;13.98;3.08;;;;;;;14.96;63.14;102316.03;5041411;28;20029;-74
2022/11/10 11:00:19;;;;;;;14.68;3.45;;;;;;;14.98;64.12;102320.31;5043998;28;20098;-73
2022/11/10 11:03:03;;;;;;;10.60;2.33;;;;;;;15.01;63.33;102318.09;5035755;28;20043;-75
2022/11/10 11:05:29;;;;;;;15.68;2.65;;;;;;;14.95;62.38;102309.59;5046745;28;20528;-77
2022/11/10 11:07:56;;;;;;;15.45;3.40;;;;;;;14.92;62.50;102312.03;5047435;28;20021;-74
2022/11/10 11:10:24;;;;;;;15.23;3.20;;;;;;;14.88;62.39;102300.50;5040079;28;20033;-77
2022/11/10 11:12:52;;;;;;;13.35;2.88;;;;;;;14.91;62.41;102301.97;5051823;28;20036;-72
2022/11/10 11:15:28;;;;;;;11.82;3.03;;;;;;;14.89;62.78;102309.72;5033690;28;20038;-74
2022/11/10 11:18:01;;;;;;;12.57;2.88;;;;;;;14.83;62.63;102310.72;5038359;28;20063;-72
2022/11/10 11:21:08;;;;;;;12.48;2.33;;;;;;;14.81;63.08;102319.34;5046604;28;20033;-78
2022/11/10 11:23:42;;;;;;;12.43;2.92;;;;;;;14.77;63.08;102317.28;5043955;28;20775;-73
2022/11/10 11:26:13;;;;;;;13.13;2.70;;;;;;;14.78;63.30;102314.28;5041336;28;20029;-75
2022/11/10 11:28:52;;;;;;;13.00;2.47;;;;;;;14.76;62.97;102305.28;5032382;28;20041;-75
2022/11/10 11:31:21;;;;;;;7.90;2.50;;;;;;;14.81;63.13;102308.16;5042049;28;20032;-74
2022/11/10 11:34:29;;;;;;;9.93;2.45;;;;;;;14.82;63.28;102318.28;5030724;28;20557;-71
2022/11/10 11:37:09;;;;;;;15.23;2.70;;;;;;;14.85;63.09;102328.09;5032033;28;20049;-79